createdAt,value
2018-03-14T00:00:37.856Z,93432.61
2018-03-14T00:03:04.466Z,93433.15
2018-03-14T00:05:31.074Z,93431.69
2018-03-14T00:07:58.470Z,93424.53
2018-03-14T00:10:25.129Z,93425.50
2018-03-14T00:12:51.735Z,93433.34
2018-03-14T00:15:19.160Z,93424.41
2018-03-14T00:17:45.764Z,93429.44
2018-03-14T00:20:13.132Z,93431.69
2018-03-14T00:22:39.755Z,93437.13
2018-03-14T00:25:07.136Z,93433.87
2018-03-14T00:27:33.759Z,93441.13
2018-03-14T00:30:00.408Z,93443.89
2018-03-14T00:32:26.989Z,93441.13
2018-03-14T00:34:54.510Z,93439.48
2018-03-14T00:37:21.250Z,93436.27
2018-03-14T00:39:47.878Z,93436.84
2018-03-14T00:42:14.484Z,93446.11
2018-03-14T00:44:41.077Z,93441.06
2018-03-14T00:47:07.662Z,93444.20
2018-03-14T00:49:34.252Z,93448.52
2018-03-14T00:52:00.910Z,93448.77
2018-03-14T00:54:27.510Z,93446.50
2018-03-14T00:56:54.133Z,93449.06
2018-03-14T00:59:20.720Z,93448.98
2018-03-14T01:01:47.377Z,93447.77
2018-03-14T01:04:13.987Z,93443.54
2018-03-14T01:06:40.616Z,93450.69
2018-03-14T01:09:08.623Z,93449.11
2018-03-14T01:11:35.365Z,93441.59
2018-03-14T01:14:01.950Z,93446.98
2018-03-14T01:16:28.588Z,93443.33
2018-03-14T01:18:55.209Z,93443.09
2018-03-14T01:21:21.836Z,93443.98
2018-03-14T01:23:48.411Z,93443.69
2018-03-14T01:26:15.022Z,93439.81
2018-03-14T01:28:41.662Z,93439.49
2018-03-14T01:31:08.250Z,93436.14
2018-03-14T01:33:34.850Z,93441.61
2018-03-14T01:36:01.430Z,93434.70
2018-03-14T01:38:28.078Z,93436.16
2018-03-14T01:40:56.400Z,93434.19
2018-03-14T01:43:24.150Z,93436.11
2018-03-14T01:45:50.745Z,93440.14
2018-03-14T01:48:17.354Z,93438.23
2018-03-14T01:50:43.958Z,93437.08
2018-03-14T01:53:28.268Z,93437.48
2018-03-14T01:55:55.623Z,93436.63
2018-03-14T01:58:22.979Z,93437.17
2018-03-14T02:00:49.598Z,93436.38
2018-03-14T02:03:16.185Z,93434.03
2018-03-14T02:05:42.839Z,93440.71
2018-03-14T02:08:09.468Z,93443.94
2018-03-14T02:10:36.443Z,93443.94
2018-03-14T02:13:03.075Z,93441.94
2018-03-14T02:15:29.668Z,93446.56
2018-03-14T02:17:57.050Z,93440.36
2018-03-14T02:20:23.672Z,93441.66
2018-03-14T02:22:50.271Z,93446.89
2018-03-14T02:25:16.868Z,93443.64
2018-03-14T02:27:43.492Z,93449.24
2018-03-14T02:30:10.271Z,93444.61
2018-03-14T02:32:36.903Z,93445.13
2018-03-14T02:35:03.497Z,93449.72
2018-03-14T02:37:30.085Z,93444.42
2018-03-14T02:39:56.685Z,93439.95
2018-03-14T02:42:23.297Z,93446.50
2018-03-14T02:44:49.959Z,93444.72
2018-03-14T02:47:16.534Z,93448.53
2018-03-14T02:49:43.136Z,93446.34
2018-03-14T02:52:09.714Z,93446.99
2018-03-14T02:54:36.357Z,93447.16
2018-03-14T02:57:02.931Z,93450.89
2018-03-14T02:59:30.253Z,93451.49
2018-03-14T03:01:56.838Z,93443.28
2018-03-14T03:04:23.462Z,93447.11
2018-03-14T03:06:50.218Z,93447.99
2018-03-14T03:09:16.841Z,93442.49
2018-03-14T03:11:43.487Z,93447.99
2018-03-14T03:14:10.080Z,93453.30
2018-03-14T03:16:36.695Z,93453.28
2018-03-14T03:19:03.394Z,93455.06
2018-03-14T03:21:30.018Z,93453.66
2018-03-14T03:23:56.597Z,93450.00
2018-03-14T03:26:23.223Z,93456.14
2018-03-14T03:28:49.793Z,93452.05
2018-03-14T03:31:16.395Z,93459.28
2018-03-14T03:33:42.963Z,93464.59
2018-03-14T03:36:09.554Z,93464.92
2018-03-14T03:38:36.126Z,93465.27
2018-03-14T03:41:02.713Z,93462.83
2018-03-14T03:43:29.308Z,93463.00
2018-03-14T03:45:55.896Z,93462.48
2018-03-14T03:48:22.484Z,93462.65
2018-03-14T03:50:49.115Z,93460.78
2018-03-14T03:53:15.730Z,93457.61
2018-03-14T03:55:42.290Z,93460.97
2018-03-14T03:58:09.555Z,93455.77
2018-03-14T04:00:36.181Z,93454.39
2018-03-14T04:03:02.762Z,93453.63
2018-03-14T04:05:30.066Z,93453.12
2018-03-14T04:07:56.667Z,93451.33
2018-03-14T04:10:23.249Z,93456.64
2018-03-14T04:12:49.827Z,93453.49
2018-03-14T04:15:16.619Z,93458.29
2018-03-14T04:17:43.166Z,93454.55
2018-03-14T04:20:09.763Z,93461.84
2018-03-14T04:22:36.388Z,93461.17
2018-03-14T04:25:03.015Z,93465.72
2018-03-14T04:27:30.366Z,93463.42
2018-03-14T04:29:57.703Z,93466.84
2018-03-14T04:32:24.286Z,93460.27
2018-03-14T04:34:50.852Z,93466.19
2018-03-14T04:37:17.454Z,93463.04
2018-03-14T04:39:44.054Z,93458.90
2018-03-14T04:42:11.404Z,93463.53
2018-03-14T04:44:38.771Z,93465.86
2018-03-14T04:47:05.374Z,93466.94
2018-03-14T04:49:31.967Z,93470.27
2018-03-14T04:51:58.562Z,93467.45
2018-03-14T04:54:25.217Z,93471.08
2018-03-14T04:56:51.836Z,93470.77
2018-03-14T04:59:18.510Z,93475.88
2018-03-14T05:01:45.128Z,93471.22
2018-03-14T05:04:12.449Z,93468.59
2018-03-14T05:06:39.039Z,93466.52
2018-03-14T05:09:05.664Z,93465.33
2018-03-14T05:11:32.251Z,93465.07
2018-03-14T05:13:59.027Z,93463.28
2018-03-14T05:16:26.328Z,93462.31
2018-03-14T05:18:52.935Z,93469.30
2018-03-14T05:21:19.597Z,93467.23
2018-03-14T05:23:46.492Z,93469.97
2018-03-14T05:26:13.951Z,93470.23
2018-03-14T05:28:41.330Z,93463.23
2018-03-14T05:31:07.930Z,93473.02
2018-03-14T05:33:34.527Z,93470.52
2018-03-14T05:36:02.127Z,93467.41
2018-03-14T05:38:28.737Z,93465.03
2018-03-14T05:40:55.382Z,93467.47
2018-03-14T05:43:21.970Z,93471.70
2018-03-14T05:45:48.581Z,93476.87
2018-03-14T05:48:15.996Z,93471.20
2018-03-14T05:50:42.582Z,93475.67
2018-03-14T05:53:09.150Z,93470.73
2018-03-14T05:55:35.755Z,93476.25
2018-03-14T05:58:02.350Z,93474.63
2018-03-14T06:00:28.969Z,93473.25
2018-03-14T06:02:55.580Z,93470.42
2018-03-14T06:05:23.117Z,93470.89
2018-03-14T06:07:49.670Z,93469.35
2018-03-14T06:10:16.558Z,93464.48
2018-03-14T06:12:43.223Z,93465.61
2018-03-14T06:15:10.775Z,93466.89
2018-03-14T06:17:37.357Z,93470.09
2018-03-14T06:20:04.046Z,93474.70
2018-03-14T06:22:30.630Z,93475.44
2018-03-14T06:24:57.227Z,93472.11
2018-03-14T06:27:23.800Z,93480.16
2018-03-14T06:29:50.491Z,93478.52
2018-03-14T06:32:17.033Z,93481.63
2018-03-14T06:34:44.375Z,93484.74
2018-03-14T06:37:10.992Z,93479.23
2018-03-14T06:39:37.586Z,93489.11
2018-03-14T06:42:04.309Z,93490.30
2018-03-14T06:44:31.660Z,93490.71
2018-03-14T06:46:59.098Z,93491.66
2018-03-14T06:49:25.671Z,93495.02
2018-03-14T06:51:52.335Z,93494.97
2018-03-14T06:54:18.998Z,93495.73
2018-03-14T06:56:45.592Z,93497.39
2018-03-14T06:59:30.825Z,93499.78
2018-03-14T07:02:15.703Z,93494.41
2018-03-14T07:05:06.639Z,93495.75
2018-03-14T07:07:34.052Z,93496.67
2018-03-14T07:10:00.633Z,93496.78
2018-03-14T07:12:27.991Z,93503.62
2018-03-14T07:14:55.314Z,93501.78
2018-03-14T07:17:23.654Z,93507.77
2018-03-14T07:19:50.239Z,93509.40
2018-03-14T07:22:16.992Z,93507.65
2018-03-14T07:24:44.374Z,93504.07
2018-03-14T07:27:10.951Z,93509.47
2018-03-14T07:29:38.315Z,93509.55
2018-03-14T07:32:04.938Z,93503.74
2018-03-14T07:34:31.609Z,93509.48
2018-03-14T07:36:58.928Z,93506.34
2018-03-14T07:39:25.540Z,93514.40
2018-03-14T07:41:52.149Z,93525.17
2018-03-14T07:44:18.756Z,93520.72
2018-03-14T07:46:45.323Z,93515.88
2018-03-14T07:49:11.896Z,93512.64
2018-03-14T07:51:38.484Z,93515.70
2018-03-14T07:54:05.190Z,93507.27
2018-03-14T07:56:31.800Z,93504.16
2018-03-14T07:58:59.235Z,93507.03
2018-03-14T08:01:25.765Z,93512.39
2018-03-14T08:03:52.355Z,93508.25
2018-03-14T08:06:19.762Z,93503.48
2018-03-14T08:08:46.368Z,93506.55
2018-03-14T08:11:13.964Z,93509.34
2018-03-14T08:13:40.692Z,93504.05
2018-03-14T08:16:07.398Z,93511.55
2018-03-14T08:18:34.000Z,93501.38
2018-03-14T08:21:00.627Z,93503.32
2018-03-14T08:23:28.542Z,93494.25
2018-03-14T08:25:55.215Z,93493.53
2018-03-14T08:28:21.836Z,93493.65
2018-03-14T08:30:49.158Z,93493.58
2018-03-14T08:33:15.798Z,93498.14
2018-03-14T08:35:42.378Z,93499.55
2018-03-14T08:38:09.621Z,93491.97
2018-03-14T08:40:36.242Z,93492.28
2018-03-14T08:43:02.886Z,93487.50
2018-03-14T08:45:30.259Z,93493.41
2018-03-14T08:47:56.862Z,93487.58
2018-03-14T08:50:24.240Z,93480.43
2018-03-14T08:52:50.802Z,93484.39
2018-03-14T08:55:17.382Z,93480.55
2018-03-14T08:57:43.938Z,93476.48
2018-03-14T09:00:10.549Z,93478.58
2018-03-14T09:02:37.137Z,93478.52
2018-03-14T09:05:03.995Z,93481.03
2018-03-14T09:07:30.664Z,93475.20
2018-03-14T09:09:57.262Z,93469.98
2018-03-14T09:12:23.833Z,93475.45
2018-03-14T09:14:50.410Z,93482.91
2018-03-14T09:17:17.022Z,93478.56
2018-03-14T09:19:43.627Z,93482.03
2018-03-14T09:22:10.275Z,93484.13
2018-03-14T09:24:36.866Z,93483.25
2018-03-14T09:27:03.501Z,93489.08
2018-03-14T09:29:30.139Z,93485.34
2018-03-14T09:31:56.964Z,93486.67
2018-03-14T09:34:24.560Z,93484.34
2018-03-14T09:36:51.166Z,93480.44
2018-03-14T09:39:18.541Z,93476.17
2018-03-14T09:41:45.131Z,93479.59
2018-03-14T09:44:11.800Z,93470.41
2018-03-14T09:46:38.394Z,93467.38
2018-03-14T09:49:05.035Z,93462.61
2018-03-14T09:51:31.676Z,93463.23
2018-03-14T09:53:59.072Z,93441.21
2018-03-14T09:56:25.719Z,93453.16
2018-03-14T09:58:52.577Z,93450.56
2018-03-14T10:01:19.201Z,93446.64
2018-03-14T10:03:45.820Z,93444.64
2018-03-14T10:06:12.459Z,93442.80
2018-03-14T10:08:39.782Z,93439.25
2018-03-14T10:11:06.446Z,93432.69
2018-03-14T10:13:33.776Z,93428.91
2018-03-14T10:16:00.387Z,93434.49
2018-03-14T10:18:26.983Z,93424.98
2018-03-14T10:20:53.620Z,93428.79
2018-03-14T10:23:20.257Z,93426.67
2018-03-14T10:25:46.881Z,93427.14
2018-03-14T10:28:14.228Z,93424.42
2018-03-14T10:30:40.812Z,93426.92
2018-03-14T10:33:07.398Z,93422.02
2018-03-14T10:35:34.007Z,93412.62
2018-03-14T10:38:00.598Z,93409.86
2018-03-14T10:40:27.174Z,93411.58
2018-03-14T10:42:53.757Z,93399.42
2018-03-14T10:45:21.963Z,93398.49
2018-03-14T10:47:48.550Z,93394.31
2018-03-14T10:50:15.129Z,93394.81
2018-03-14T10:52:41.714Z,93389.03
2018-03-14T10:55:08.557Z,93390.36
2018-03-14T10:57:35.983Z,93384.36
2018-03-14T11:00:02.596Z,93390.00
2018-03-14T11:02:30.152Z,93393.52
2018-03-14T11:04:56.722Z,93379.88
2018-03-14T11:07:24.121Z,93384.97
2018-03-14T11:09:50.711Z,93380.47
2018-03-14T11:12:17.328Z,93382.41
2018-03-14T11:14:44.741Z,93379.55
2018-03-14T11:17:11.357Z,93371.88
2018-03-14T11:19:37.997Z,93373.39
2018-03-14T11:22:04.640Z,93373.61
2018-03-14T11:24:31.311Z,93363.37
2018-03-14T11:26:59.691Z,93362.84
2018-03-14T11:29:27.015Z,93365.70
2018-03-14T11:31:53.673Z,93364.36
2018-03-14T11:34:20.347Z,93358.87
2018-03-14T11:36:46.902Z,93357.98
2018-03-14T11:39:13.484Z,93353.49
2018-03-14T11:41:40.130Z,93362.42
2018-03-14T11:44:06.706Z,93352.90
2018-03-14T11:46:33.394Z,93347.32
2018-03-14T11:48:59.974Z,93343.30
2018-03-14T11:51:26.570Z,93338.81
2018-03-14T11:53:53.908Z,93337.45
2018-03-14T11:56:20.479Z,93332.04
2018-03-14T11:58:47.031Z,93328.86
2018-03-14T12:01:13.612Z,93321.95
2018-03-14T12:03:40.191Z,93317.45
2018-03-14T12:06:06.755Z,93310.84
2018-03-14T12:08:33.346Z,93310.05
2018-03-14T12:11:00.679Z,93312.97
2018-03-14T12:13:27.297Z,93300.85
2018-03-14T12:15:53.960Z,93295.94
2018-03-14T12:18:21.345Z,93289.40
2018-03-14T12:20:48.218Z,93283.67
2018-03-14T12:23:15.670Z,93284.35
2018-03-14T12:25:42.252Z,93278.66
2018-03-14T12:28:08.859Z,93276.44
2018-03-14T12:30:35.443Z,93273.84
2018-03-14T12:33:02.054Z,93273.54
2018-03-14T12:35:28.925Z,93265.63
2018-03-14T12:37:55.499Z,93263.52
2018-03-14T12:40:22.098Z,93257.49
2018-03-14T12:42:48.703Z,93249.08
2018-03-14T12:45:15.277Z,93237.52
2018-03-14T12:47:41.880Z,93232.97
2018-03-14T12:50:08.459Z,93233.86
2018-03-14T12:52:35.325Z,93225.77
2018-03-14T12:55:01.971Z,93220.98
2018-03-14T12:57:28.580Z,93216.70
2018-03-14T12:59:55.307Z,93208.33
2018-03-14T13:02:21.914Z,93206.75
2018-03-14T13:04:48.522Z,93207.39
2018-03-14T13:07:15.227Z,93210.16
2018-03-14T13:09:41.800Z,93198.45
2018-03-14T13:12:08.410Z,93189.51
2018-03-14T13:14:35.205Z,93183.30
2018-03-14T13:17:01.861Z,93175.40
2018-03-14T13:19:29.206Z,93171.57
2018-03-14T13:21:55.806Z,93172.55
2018-03-14T13:24:22.375Z,93161.84
2018-03-14T13:26:49.715Z,93157.44
2018-03-14T13:29:16.498Z,93155.13
2018-03-14T13:31:43.120Z,93155.52
2018-03-14T13:34:10.561Z,93150.41
2018-03-14T13:36:37.175Z,93141.12
2018-03-14T13:39:03.830Z,93142.53
2018-03-14T13:41:30.445Z,93137.68
2018-03-14T13:43:57.046Z,93127.02
2018-03-14T13:46:23.666Z,93128.63
2018-03-14T13:48:50.474Z,93122.33
2018-03-14T13:51:17.075Z,93118.63
2018-03-14T13:53:43.655Z,93118.98
2018-03-14T13:56:11.403Z,93112.33
2018-03-14T13:58:38.001Z,93109.06
2018-03-14T14:01:04.631Z,93103.73
2018-03-14T14:03:31.206Z,93105.11
2018-03-14T14:05:57.809Z,93100.50
2018-03-14T14:08:24.391Z,93101.52
2018-03-14T14:10:50.962Z,93094.21
2018-03-14T14:13:17.600Z,93089.48
2018-03-14T14:15:44.214Z,93080.23
2018-03-14T14:18:11.032Z,93081.91
2018-03-14T14:20:37.606Z,93076.66
2018-03-14T14:23:05.574Z,93077.22
2018-03-14T14:25:32.286Z,93069.34
2018-03-14T14:27:58.900Z,93072.01
2018-03-14T14:30:25.485Z,93065.11
2018-03-14T14:32:53.134Z,93062.65
2018-03-14T14:35:19.741Z,93062.61
2018-03-14T14:37:46.319Z,93050.18
2018-03-14T14:40:13.630Z,93041.83
2018-03-14T14:42:40.200Z,93044.45
2018-03-14T14:45:06.806Z,93044.77
2018-03-14T14:47:33.421Z,93041.23
2018-03-14T14:50:00.019Z,93034.80
2018-03-14T14:52:26.647Z,93041.13
2018-03-14T14:54:53.950Z,93031.48
2018-03-14T14:57:20.534Z,93028.30
2018-03-14T14:59:47.124Z,93023.56
2018-03-14T15:02:13.902Z,93019.63
2018-03-14T15:04:40.482Z,93015.77
2018-03-14T15:07:07.071Z,93009.40
2018-03-14T15:09:33.647Z,93011.98
2018-03-14T15:12:00.250Z,93004.81
2018-03-14T15:14:27.774Z,93001.93
2018-03-14T15:16:54.378Z,92991.08
2018-03-14T15:19:20.999Z,93002.94
2018-03-14T15:21:47.630Z,92990.13
2018-03-14T15:24:14.178Z,92983.35
2018-03-14T15:26:41.526Z,92988.73
2018-03-14T15:29:08.863Z,92989.70
2018-03-14T15:31:35.486Z,92984.45
2018-03-14T15:34:02.111Z,92975.42
2018-03-14T15:36:28.728Z,92976.64
2018-03-14T15:38:55.356Z,92973.25
2018-03-14T15:41:21.994Z,92961.91
2018-03-14T15:43:48.602Z,92966.60
2018-03-14T15:46:16.031Z,92965.75
2018-03-14T15:48:43.375Z,92967.97
2018-03-14T15:51:09.951Z,92960.45
2018-03-14T15:53:37.248Z,92973.05
2018-03-14T15:56:04.022Z,92967.45
2018-03-14T15:58:31.208Z,92969.02
2018-03-14T16:00:57.818Z,92963.98
2018-03-14T16:03:24.663Z,92959.46
2018-03-14T16:05:51.253Z,92954.42
2018-03-14T16:08:17.859Z,92961.18
2018-03-14T16:10:45.182Z,92954.67
2018-03-14T16:13:11.816Z,92954.03
2018-03-14T16:15:38.398Z,92958.77
2018-03-14T16:18:05.033Z,92950.37
2018-03-14T16:20:31.657Z,92966.44
2018-03-14T16:22:58.309Z,92963.24
2018-03-14T16:25:25.775Z,92960.19
2018-03-14T16:27:52.393Z,92953.81
2018-03-14T16:30:18.963Z,92951.36
2018-03-14T16:32:45.571Z,92947.16
2018-03-14T16:35:12.207Z,92950.75
2018-03-14T16:37:38.817Z,92958.30
2018-03-14T16:40:06.174Z,92955.14
2018-03-14T16:42:32.780Z,92956.89
2018-03-14T16:44:59.358Z,92952.17
2018-03-14T16:47:26.115Z,92958.67
2018-03-14T16:49:52.707Z,92958.97
2018-03-14T16:52:20.458Z,92956.70
2018-03-14T16:54:47.047Z,92964.97
2018-03-14T16:57:13.641Z,92954.66
2018-03-14T16:59:40.300Z,92953.27
2018-03-14T17:02:07.662Z,92950.64
2018-03-14T17:04:34.291Z,92954.65
2018-03-14T17:07:01.631Z,92948.92
2018-03-14T17:09:29.190Z,92953.96
2018-03-14T17:11:55.806Z,92955.38
2018-03-14T17:14:27.280Z,92947.66
2018-03-14T17:16:49.039Z,92952.00
2018-03-14T17:19:15.787Z,92949.20
2018-03-14T17:21:42.406Z,92956.03
2018-03-14T17:24:09.013Z,92942.78
2018-03-14T17:26:35.654Z,92943.98
2018-03-14T17:29:02.286Z,92940.59
2018-03-14T17:31:29.855Z,92943.50
2018-03-14T17:33:57.447Z,92939.56
2018-03-14T17:36:24.093Z,92935.37
2018-03-14T17:38:50.832Z,92949.23
2018-03-14T17:41:17.463Z,92943.86
2018-03-14T17:43:44.186Z,92942.37
2018-03-14T17:46:10.848Z,92938.75
2018-03-14T17:48:37.706Z,92943.97
2018-03-14T17:51:04.326Z,92944.76
2018-03-14T17:53:30.899Z,92940.06
2018-03-14T17:55:57.527Z,92928.19
2018-03-14T17:58:24.118Z,92930.50
2018-03-14T18:00:51.518Z,92926.36
2018-03-14T18:03:18.151Z,92924.83
2018-03-14T18:05:44.877Z,92929.84
2018-03-14T18:08:11.516Z,92933.05
2018-03-14T18:10:38.200Z,92927.13
2018-03-14T18:13:04.845Z,92923.62
2018-03-14T18:15:31.602Z,92916.97
2018-03-14T18:17:58.957Z,92913.80
2018-03-14T18:20:25.548Z,92907.47
2018-03-14T18:22:53.107Z,92909.02
2018-03-14T18:25:19.819Z,92904.59
2018-03-14T18:27:47.019Z,92908.03
2018-03-14T18:30:13.648Z,92899.00
2018-03-14T18:32:40.285Z,92899.47
2018-03-14T18:35:06.941Z,92906.69
2018-03-14T18:37:33.560Z,92901.08
2018-03-14T18:40:00.213Z,92899.86
2018-03-14T18:42:28.748Z,92898.56
2018-03-14T18:44:55.370Z,92896.05
2018-03-14T18:47:21.960Z,92893.05
2018-03-14T18:49:49.465Z,92896.78
2018-03-14T18:52:16.260Z,92890.80
2018-03-14T18:54:43.668Z,92893.23
2018-03-14T18:57:10.312Z,92890.13
2018-03-14T18:59:36.948Z,92890.48
2018-03-14T19:02:03.639Z,92895.98
2018-03-14T19:04:31.242Z,92889.28
2018-03-14T19:06:57.858Z,92887.53
2018-03-14T19:09:24.507Z,92887.36
2018-03-14T19:11:51.160Z,92877.00
2018-03-14T19:14:17.805Z,92867.59
2018-03-14T19:16:44.430Z,92868.02
2018-03-14T19:19:11.076Z,92863.44
2018-03-14T19:21:37.679Z,92862.62
2018-03-14T19:24:05.045Z,92858.27
2018-03-14T19:26:31.654Z,92865.34
2018-03-14T19:28:58.261Z,92857.94
2018-03-14T19:31:25.614Z,92864.18
2018-03-14T19:33:52.251Z,92866.43
2018-03-14T19:36:19.615Z,92862.73
2018-03-14T19:38:46.307Z,92860.90
2018-03-14T19:41:13.246Z,92859.03
2018-03-14T19:43:39.877Z,92852.21
2018-03-14T19:46:07.257Z,92850.64
2018-03-14T19:48:33.885Z,92847.72
2018-03-14T19:51:00.554Z,92845.44
2018-03-14T19:53:27.179Z,92842.75
2018-03-14T19:55:53.831Z,92829.44
2018-03-14T19:58:21.107Z,92832.70
2018-03-14T20:00:47.796Z,92829.37
2018-03-14T20:03:14.465Z,92829.05
2018-03-14T20:05:41.129Z,92831.94
2018-03-14T20:08:07.749Z,92830.00
2018-03-14T20:10:34.357Z,92836.41
2018-03-14T20:13:00.953Z,92830.88
2018-03-14T20:15:28.343Z,92827.55
2018-03-14T20:17:54.932Z,92819.83
2018-03-14T20:20:22.342Z,92816.28
2018-03-14T20:22:49.016Z,92820.09
2018-03-14T20:25:15.599Z,92811.33
2018-03-14T20:27:42.339Z,92810.40
2018-03-14T20:30:09.719Z,92814.44
2018-03-14T20:32:36.344Z,92816.81
2018-03-14T20:35:02.999Z,92814.95
2018-03-14T20:37:29.611Z,92811.94
2018-03-14T20:39:56.211Z,92808.55
2018-03-14T20:42:23.579Z,92806.57
2018-03-14T20:44:50.234Z,92811.05
2018-03-14T20:47:16.855Z,92807.42
2018-03-14T20:49:43.510Z,92798.71
2018-03-14T20:52:10.268Z,92791.56
2018-03-14T20:54:36.903Z,92786.52
2018-03-14T20:57:03.575Z,92783.87
2018-03-14T20:59:30.202Z,92780.33
2018-03-14T21:01:57.579Z,92780.28
2018-03-14T21:04:24.197Z,92774.09
2018-03-14T21:06:50.830Z,92767.06
2018-03-14T21:09:17.448Z,92768.49
2018-03-14T21:11:44.105Z,92769.42
2018-03-14T21:14:10.767Z,92764.04
2018-03-14T21:16:37.966Z,92764.79
2018-03-14T21:19:04.595Z,92759.52
2018-03-14T21:21:31.259Z,92749.17
2018-03-14T21:23:57.883Z,92752.79
2018-03-14T21:26:24.490Z,92755.69
2018-03-14T21:28:51.826Z,92739.08
2018-03-14T21:31:18.443Z,92733.07
2018-03-14T21:33:45.855Z,92737.45
2018-03-14T21:36:12.492Z,92725.03
2018-03-14T21:38:39.103Z,92721.78
2018-03-14T21:41:06.479Z,92723.93
2018-03-14T21:43:33.134Z,92706.98
2018-03-14T21:45:59.858Z,92716.30
2018-03-14T21:48:26.499Z,92707.03
2018-03-14T21:50:53.140Z,92706.54
2018-03-14T21:53:19.890Z,92698.10
2018-03-14T21:55:46.539Z,92688.93
2018-03-14T21:58:13.334Z,92696.20
2018-03-14T22:00:39.911Z,92687.38
2018-03-14T22:03:06.549Z,92680.96
2018-03-14T22:05:33.229Z,92680.31
2018-03-14T22:07:59.847Z,92677.03
2018-03-14T22:10:26.450Z,92673.00
2018-03-14T22:12:53.144Z,92670.14
2018-03-14T22:15:19.751Z,92668.30
2018-03-14T22:17:46.412Z,92663.78
2018-03-14T22:20:13.066Z,92659.70
2018-03-14T22:22:40.449Z,92660.69
2018-03-14T22:25:07.315Z,92650.02
2018-03-14T22:27:33.916Z,92641.73
2018-03-14T22:30:00.539Z,92632.02
2018-03-14T22:32:27.851Z,92627.54
2018-03-14T22:34:54.434Z,92623.64
2018-03-14T22:37:21.779Z,92629.33
2018-03-14T22:39:49.116Z,92623.95
2018-03-14T22:42:15.682Z,92629.86
2018-03-14T22:44:43.150Z,92621.63
2018-03-14T22:47:09.932Z,92620.86
2018-03-14T22:49:36.518Z,92614.78
2018-03-14T22:52:03.170Z,92605.20
2018-03-14T22:54:29.739Z,92610.80
2018-03-14T22:56:56.342Z,92600.57
2018-03-14T22:59:22.999Z,92606.44
2018-03-14T23:01:49.640Z,92596.36
2018-03-14T23:04:16.312Z,92596.14
2018-03-14T23:06:42.872Z,92601.28
2018-03-14T23:09:09.513Z,92593.39
2018-03-14T23:11:36.136Z,92594.30
2018-03-14T23:14:03.481Z,92593.98
2018-03-14T23:16:30.515Z,92593.23
2018-03-14T23:18:57.138Z,92596.09
2018-03-14T23:21:23.753Z,92598.69
2018-03-14T23:23:50.348Z,92598.58
2018-03-14T23:26:18.586Z,92592.59
2018-03-14T23:28:45.205Z,92594.39
2018-03-14T23:31:11.847Z,92590.53
2018-03-14T23:33:38.431Z,92585.50
2018-03-14T23:36:05.012Z,92584.87
2018-03-14T23:38:31.619Z,92582.67
2018-03-14T23:40:59.091Z,92571.02
2018-03-14T23:43:25.747Z,92574.84
2018-03-14T23:45:52.897Z,92565.48
2018-03-14T23:48:19.646Z,92561.98
2018-03-14T23:50:46.237Z,92562.38
2018-03-14T23:53:13.567Z,92560.76
2018-03-14T23:55:40.174Z,92552.35
2018-03-14T23:58:06.768Z,92554.24
